EGGD

Bristol International Airport

Bristol, United Kingdom
METAR EGGD 190450Z AUTO 20008KT 170V230 9999 BKN008 OVC013 15/15 Q1010
Observed Flight Rules
Sep-19 @ 04:50 UTC (27 minutes ago) Instrument Flight Rules
Wind Visibility Clouds
200° at 8 knots 10,000+ meters
  • Broken at 800' AGL
  • Overcast at 1,300' AGL
Temperatures Readings
Current 15°C / 59°F
Dewpoint 15°C / 59°F
Humidity 100%
Altimeter 29.82" Hg
Pressure 1010 hPa
Elevation 189
METAR EGGD 190450Z AUTO 20008KT 170V230 9999 BKN008 OVC013 15/15 Q1010
Observed Flight Rules
Sep-19 @ 04:50 UTC
(27 minutes ago)
IFR
Wind Visibility
200° at 8 knots 10,000+ meters
Clouds
  • Broken at 800' AGL
  • Overcast at 1,300' AGL
Temperature Dewpoint
15°C / 59°F 15°C / 59°F
Humidity Altimeter Pressure
100% 29.82" Hg 1010 hPa